Home > Products > Valid Products > MTR

000
SAUS45 KLKN 231555
MTRP68
METAR KP68 231553Z AUTO 13003KT M03/M06 A3033 RMK AO1 SLP276
T10331061





000
SAUS45 KLKN 231454
MTRP68
METAR KP68 231453Z AUTO 34004KT M07/M10 A3031 RMK AO1 SLP280
T10721100 51021





000
SAUS45 KLKN 231354
MTRP68
METAR KP68 231353Z AUTO 00000KT M06/M09 A3029 RMK AO1 SLP271
T10611089





000
SAUS45 KLKN 231254
MTRP68
METAR KP68 231253Z AUTO 27006KT M06/M08 A3026 RMK AO1 SLP262
T10561083





000
SAUS45 KLKN 231155
MTRP68
METAR KP68 231153Z AUTO 22003KT M04/M07 A3024 RMK AO1 SLP234 70007
T10391072 11006 21056 53019





000
SAUS45 KLKN 231054
MTRP68
METAR KP68 231053Z AUTO 00000KT M04/M07 A3020 RMK AO1 SLP214
T10391072





000
SAUS45 KLKN 230954
MTRP68
METAR KP68 230953Z AUTO 12007KT M04/M07 A3019 RMK AO1 SLP211
T10391067





000
SAUS45 KLKN 230954
MTRP68
METAR KP68 230953Z AUTO 12007KT M04/M07 A3019 RMK AO1 SLP211
T10391067





000
SAUS45 KLKN 230855
MTRP68
METAR KP68 230853Z AUTO 00000KT M02/M05 A3017 RMK AO1 SLP190
T10171050 53013





000
SAUS45 KLKN 230755
MTRP68
METAR KP68 230753Z AUTO 08007KT M02/M05 A3015 RMK AO1 SLP197
T10221050 401331022





000
SAUS45 KLKN 230655
MTRP68
METAR KP68 230653Z AUTO 03006KT M01/M03 A3014 RMK AO1 SLP193
T10061033





000
SAUS45 KLKN 230555
MTRP68
METAR KP68 230553Z AUTO 34009KT M01/M02 A3012 RMK AO1 SLP189 60005
T10111022 10067 21011 51029





000
SAUS45 KLKN 230455
MTRP68
METAR KP68 230453Z AUTO 30005KT 01/M03 A3010 RMK AO1 SLP177
T00061028





000
SAUS45 KLKN 230354
MTRP68
METAR KP68 230353Z AUTO 31016G23KT 02/M03 A3006 RMK AO1 PK WND
30027/0330 SLP168 T00221033





000
SAUS45 KLKN 230254
MTRP68
METAR KP68 230253Z AUTO 30011KT 02/M01 A3002 RMK AO1 SLP152 60005
T00171011 51032





000
SAUS45 KLKN 230155
MTRP68
METAR KP68 230153Z AUTO 00000KT 01/00 A3001 RMK AO1 SLP152 T00110000





000
SAUS45 KLKN 230054
MTRP68
METAR KP68 230053Z AUTO 34009KT 01/M01 A2998 RMK AO1 PK WND
36027/0013 WSHFT 2342 SLP141 P0005 T00061006





000
SAUS45 KLKN 230001
MTRP68
SPECI KP68 222359Z AUTO 35014G26KT 04/01 A2992 RMK AO1 WSHFT 2342
T00440006





000
SAUS45 KLKN 222354
MTRP68
METAR KP68 222353Z AUTO 35020G42KT 07/M01 A2991 RMK AO1 PK WND
28045/2258 SLP105 60002 T00721006 10133 20061 53021





000
SAUS45 KLKN 222254
MTRP68
METAR KP68 222253Z AUTO 29021G31KT 11/M01 A2987 RMK AO1 PK WND
27035/2218 SLP084 T01061006





000
SAUS45 KLKN 222154
MTRP68
METAR KP68 222153Z AUTO 25029G36KT 09/02 A2987 RMK AO1 PK WND
31039/2110 SLP083 P0001 T00940022





000
SAUS45 KLKN 222154
MTRP68
METAR KP68 222153Z AUTO 25029G36KT 09/02 A2987 RMK AO1 PK WND
31039/2110 SLP083 P0001 T00940022





000
SAUS45 KLKN 222055
MTRP68
METAR KP68 222053Z AUTO 26028G40KT 13/00 A2983 RMK AO1 PK WND
25040/2051 SLP063 60001 T01330000 58029





000
SAUS45 KLKN 222049
MTRP68
SPECI KP68 222047Z AUTO 25028G38KT SQ 13/01 A2983 RMK AO1 PK WND
25038/2044 T01330006





000
SAUS45 KLKN 221954
MTRP68
METAR KP68 221953Z AUTO 16008KT 08/03 A2988 RMK AO1 SLP087 T00830028





000
SAUS45 KLKN 221858 COR
MTRP68
METAR KP68 221853Z AUTO 06005KT 06/02 A2992 RMK AO1 SLP105 P0001
T00610017





000
SAUS45 KLKN 221857 COR
MTRP68
METAR KP68 221853Z AUTO 06005KT 06/02 A2992 RMK AO1vRs7x4Uf3f3f3f3f3f3f3f3f3f3f3f3f3fE<{9KWf3f3f3f3f3f3f3f3f3f3f3f3f3f3
REQ RNOMTRP68





000
SAUS45 KLKN 221754
MTRP68
METAR KP68 221753Z AUTO 04004KT 06/01 A2993 RMK AO1 SLP108 T00610006
10067 20006 58007





000
SAUS45 KLKN 221655
MTRP68
METAR KP68 221653Z AUTO 00000KT 06/M01 A2995 RMK AO1 SLP113
T00611006





000
SAUS45 KLKN 221555
MTRP68
METAR KP68 221553Z AUTO 11004KT 03/M01 A2996 RMK AO1 SLP130
T00331006





000
SAUS45 KLKN 221455
MTRP68
METAR KP68 221453Z AUTO 22007KT 03/M03 A2996 RMK AO1 SLP123
T00331033 56020





000
SAUS45 KLKN 221354
MTRP68
METAR KP68 221353Z AUTO 18003KT 03/M04 A2997 RMK AO1 SLP129
T00331044





000
SAUS45 KLKN 221255
MTRP68
METAR KP68 221253Z AUTO 18004KT 04/M04 A2999 RMK AO1 SLP133
T00391044





000
SAUS45 KLKN 221154
MTRP68
METAR KP68 221153Z AUTO 22007KT 02/M05 A3003 RMK AO1 SLP146
T00171050 10061 20006 58010





000
SAUS45 KLKN 221054
MTRP68
METAR KP68 221053Z AUTO 27005KT 02/M05 A3004 RMK AO1 SLP143
T00171050





000
SAUS45 KLKN 220954
MTRP68
METAR KP68 220953Z AUTO 13004KT 04/M04 A3007 RMK AO1 SLP150
T00391044





000
SAUS45 KLKN 220954
MTRP68
METAR KP68 220953Z AUTO 13004KT 04/M04 A3007 RMK AO1 SLP150
T00391044





000
SAUS45 KLKN 220854
MTRP68
METAR KP68 220853Z AUTO 21005KT 03/M06 A3006 RMK AO1 SLP152
T00281056 53001





000
SAUS45 KLKN 220754
MTRP68
METAR KP68 220753Z AUTO 13003KT 04/M06 A3003 RMK AO1 SLP139
T00391056 401171072





000
SAUS45 KLKN 220654
MTRP68
METAR KP68 220653Z AUTO 23007KT 06/M05 A3005 RMK AO1 SLP145
T00561050





000
SAUS45 KLKN 220555
MTRP68
METAR KP68 220553Z AUTO 23003KT 06/M07 A3006 RMK AO1 SLP155
T00611067 10083 20028 51008





000
SAUS45 KLKN 220455
MTRP68
METAR KP68 220453Z AUTO 24005KT 07/M07 A3006 RMK AO1 SLP157
T00671067





000
SAUS45 KLKN 220355
MTRP68
METAR KP68 220353Z AUTO 16003KT 03/M06 A3004 RMK AO1 SLP168
T00281056





000
SAUS45 KLKN 220255
MTRP68
METAR KP68 220253Z AUTO 19006KT 05/M06 A3003 RMK AO1 SLP169
T00501056 53004





000
SAUS45 KLKN 220155
MTRP68
METAR KP68 220153Z AUTO 19004KT 04/M07 A3002 RMK AO1 SLP172
T00391067





000
SAUS45 KLKN 220054
MTRP68
METAR KP68 220053Z AUTO 19004KT 05/M06 A3001 RMK AO1 SLP164
T00501061





000
SAUS45 KLKN 212354
MTRP68
METAR KP68 212353Z AUTO 23004KT 08/M06 A3001 RMK AO1 SLP156
T00831061 10117 20050 53004





000
SAUS45 KLKN 212255
MTRP68
METAR KP68 212253Z AUTO 27008KT 11/M06 A2999 RMK AO1 SLP141
T01111061





000
SAUS45 KLKN 212156
MTRP68
METAR KP68 212153Z AUTO 29006KT 12/M07 A2998 RMK AO1 SLP134
T01171072





000
SAUS45 KLKN 212055
MTRP68
METAR KP68 212053Z AUTO VRB05KT 11/M06 A3000 RMK AO1 SLP145
T01061061 56014





000
SAUS45 KLKN 211955
MTRP68
METAR KP68 211953Z AUTO 00000KT 09/M06 A3001 RMK AO1 SLP150
T00891061





000
SAUS45 KLKN 211855
MTRP68
METAR KP68 211853Z AUTO 00000KT 08/M05 A3003 RMK AO1 SLP159
T00781050





000
SAUS45 KLKN 211755
MTRP68
METAR KP68 211753Z AUTO 16003KT 05/M06 A3005 RMK AO1 SLP165
T00501061 10050 21061 50006





000
SAUS45 KLKN 211655
MTRP68
METAR KP68 211653Z AUTO 28003KT 03/M06 A3006 RMK AO1 SLP172
T00331056





000
SAUS45 KLKN 211554
MTRP68
METAR KP68 211553Z AUTO 21006KT M01/M07 A3005 RMK AO1 SLP175
T10111072





000
SAUS45 KLKN 211554
MTRP68
METAR KP68 211553Z AUTO 21006KT M01/M07 A3005 RMK AO1 SLP175
T10111072





000
SAUS45 KLKN 211454
MTRP68
METAR KP68 211453Z AUTO 22006KT M05/M09 A3003 RMK AO1 SLP172
T10501094 53011





000
SAUS45 KLKN 211354
MTRP68
METAR KP68 211353Z AUTO 20008KT M06/M09 A3000 RMK AO1 SLP158
T10611094





000
SAUS45 KLKN 211255
MTRP68
METAR KP68 211253Z AUTO 20005KT M06/M09 A3000 RMK AO1 SLP154
T10611089





000
SAUS45 KLKN 211155
MTRP68
METAR KP68 211153Z AUTO 21009KT M05/M09 A2999 RMK AO1 SLP143
T10501094 11011 21072 52004





000
SAUS45 KLKN 211054
MTRP68
METAR KP68 211053Z AUTO 19005KT M06/M09 A2998 RMK AO1 SLP138
T10611094





000
SAUS45 KLKN 210954
MTRP68
METAR KP68 210953Z AUTO 20006KT M04/M09 A2998 RMK AO1 SLP133
T10441089





000
SAUS45 KLKN 210854
MTRP68
METAR KP68 210853Z AUTO 18005KT M05/M09 A2997 RMK AO1 SLP133
T10501089 58000





000
SAUS45 KLKN 210754
MTRP68
METAR KP68 210753Z AUTO 19003KT M04/M09 A2999 RMK AO1 SLP140
T10441089 401221056





000
SAUS45 KLKN 210654
MTRP68
METAR KP68 210653Z AUTO 00000KT M04/M08 A2998 RMK AO1 SLP138
T10391083





000
SAUS45 KLKN 210554
MTRP68
METAR KP68 210553Z AUTO 19005KT M01/M07 A2997 RMK AO1 SLP134
T10111072 10100 21017 51002





000
SAUS45 KLKN 210454
MTRP68
METAR KP68 210453Z AUTO 00000KT M01/M07 A2997 RMK AO1 SLP139
T10061072





000
SAUS45 KLKN 210355
MTRP68
METAR KP68 210353Z AUTO 00000KT 02/M07 A2997 RMK AO1 SLP142
T00171072





000
SAUS45 KLKN 210355
MTRP68
METAR KP68 210353Z AUTO 00000KT 02/M07 A2997 RMK AO1 SLP142
T00171072





000
SAUS45 KLKN 210255
MTRP68
METAR KP68 210253Z AUTO 19005KT 03/M07 A2997 RMK AO1 SLP149
T00281067 56006





000
SAUS45 KLKN 210156 COR
MTRP68
METAR KP68 210153Z AUTO 15004KT 06/M06 A2997 RMK AO1 SLP142
T00561061





000
SAUS45 KLKN 210156
MTRP68
T00561061





000
SAUS45 KLKN 210054
MTRP68
METAR KP68 210053Z AUTO 09004KT 07/M07 A2998 RMK AO1 SLP138
T00671067





000
SAUS45 KLKN 202355
MTRP68
METAR KP68 202353Z AUTO 10003KT 09/M07 A2999 RMK AO1 SLP133
T00941067 10122 20078 56009





000
SAUS45 KLKN 202255
MTRP68
METAR KP68 202253Z AUTO 15003KT 11/M07 A2999 RMK AO1 SLP129
T01111072





000
SAUS45 KLKN 202155
MTRP68
METAR KP68 202153Z AUTO 16005KT 12/M07 A3000 RMK AO1 SLP129
T01171072





000
SAUS45 KLKN 202055
MTRP68
METAR KP68 202053Z AUTO 00000KT 11/M07 A3002 RMK AO1 SLP136
T01111072 58022





000
SAUS45 KLKN 201955
MTRP68
METAR KP68 201953Z AUTO 00000KT 10/M07 A3006 RMK AO1 SLP150
T01001072





000
SAUS45 KLKN 201855
MTRP68
METAR KP68 201853Z AUTO 00000KT 09/M08 A3008 RMK AO1 SLP158
T00941078





000
SAUS45 KLKN 201754
MTRP68
METAR KP68 201753Z AUTO 00000KT 08/M08 A3010 RMK AO1 SLP168
T00781078 10078 21050 58005





000
SAUS45 KLKN 201654
MTRP68
METAR KP68 201653Z AUTO 17003KT 04/M08 A3012 RMK AO1 SLP181
T00441078





    US Dept of Commerce
    National Oceanic and Atmospheric Administration
    National Weather Service
    1325 East West Highway
    Silver Spring, MD 20910
    Page Author: NWS Internet Services Team
Disclaimer
Information Quality
Credits
Glossary
Privacy Policy
Freedom of Information Act (FOIA)
About Us
Career Opportunities